Time;durP1;ratioP1;P1;durP2;ratioP2;P2;SDS_P1;SDS_P2;PMS_P1;PMS_P2;Temp;Humidity;BMP_temperature;BMP_pressure;BME280_temperature;BME280_humidity;BME280_pressure;Samples;Min_cycle;Max_cycle;Signal;HPM_P1;HPM_P2
2022/04/02 00:01:39;;;;;;;;;;;1.50;99.40;;;;;;5102579;28;19954;-65
2022/04/02 00:04:06;;;;;;;;;;;1.50;99.40;;;;;;5103195;28;20265;-65
2022/04/02 00:06:33;;;;;;;;;;;1.50;99.20;;;;;;5103082;28;19915;-65
2022/04/02 00:08:59;;;;;;;;;;;1.50;99.30;;;;;;5103105;28;19908;-65
2022/04/02 00:11:24;;;;;;;;;;;1.50;99.20;;;;;;5103423;28;20220;-63
2022/04/02 00:13:50;;;;;;;;;;;1.40;98.60;;;;;;5103066;28;19915;-63
2022/04/02 00:16:16;;;;;;;;;;;1.50;98.30;;;;;;5102872;28;19908;-64
2022/04/02 00:18:42;;;;;;;;;;;1.40;98.60;;;;;;5102816;28;19908;-64
2022/04/02 00:21:08;;;;;;;;;;;1.40;98.60;;;;;;5102645;28;19909;-64
2022/04/02 00:23:39;;;;;;;;;;;1.20;98.20;;;;;;5102684;28;19919;-64
2022/04/02 00:26:19;;;;;;;;;;;1.20;98.30;;;;;;5102872;28;19916;-64
2022/04/02 00:28:45;;;;;;;;;;;1.30;98.00;;;;;;5102575;28;20130;-64
2022/04/02 00:31:12;;;;;;;;;;;1.30;97.50;;;;;;5102767;28;19971;-64
2022/04/02 00:33:38;;;;;;;;;;;1.40;96.50;;;;;;5102831;28;19915;-64
2022/04/02 00:36:04;;;;;;;;;;;1.30;96.80;;;;;;5102820;28;19979;-64
2022/04/02 00:38:29;;;;;;;;;;;1.30;96.40;;;;;;5102625;28;19974;-64
2022/04/02 00:40:55;;;;;;;;;;;1.30;96.60;;;;;;5102406;28;20215;-64
2022/04/02 00:43:28;;;;;;;;;;;1.30;97.10;;;;;;5102326;28;19912;-64
2022/04/02 00:45:56;;;;;;;;;;;1.20;97.00;;;;;;5102482;28;19934;-64
2022/04/02 00:48:23;;;;;;;;;;;1.20;96.80;;;;;;5102390;28;19912;-64
2022/04/02 00:50:52;;;;;;;;;;;1.20;97.30;;;;;;5084415;28;19957;-64
2022/04/02 00:53:18;;;;;;;;;;;1.20;97.40;;;;;;5102463;28;19908;-64
2022/04/02 00:55:43;;;;;;;;;;;1.30;97.50;;;;;;5102490;28;19982;-64
2022/04/02 00:58:10;;;;;;;;;;;1.30;97.40;;;;;;5084285;28;19916;-64
2022/04/02 01:00:36;;;;;;;;;;;1.30;97.50;;;;;;5102111;28;19914;-64
2022/04/02 01:03:02;;;;;;;;;;;1.30;97.90;;;;;;5084508;28;20110;-64
2022/04/02 01:05:27;;;;;;;;;;;1.30;98.10;;;;;;5102428;28;20100;-63
2022/04/02 01:07:53;;;;;;;;;;;1.30;98.00;;;;;;5102278;28;19923;-63
2022/04/02 01:10:19;;;;;;;;;;;1.30;97.90;;;;;;5102306;28;19943;-64
2022/04/02 01:12:45;;;;;;;;;;;1.30;98.20;;;;;;5083938;28;19916;-64
2022/04/02 01:15:10;;;;;;;;;;;1.30;98.30;;;;;;5102326;28;19908;-64
2022/04/02 01:17:40;;;;;;;;;;;1.40;98.30;;;;;;5102117;28;19908;-64
2022/04/02 01:20:09;;;;;;;;;;;1.40;98.40;;;;;;5101507;28;19908;-65
2022/04/02 01:22:36;;;;;;;;;;;1.30;98.40;;;;;;5083958;28;20264;-65
2022/04/02 01:25:02;;;;;;;;;;;1.40;98.40;;;;;;5102341;28;19915;-64
2022/04/02 01:27:28;;;;;;;;;;;1.40;98.40;;;;;;5101855;28;20207;-64
2022/04/02 01:29:54;;;;;;;;;;;1.40;98.60;;;;;;5084186;28;19942;-65
2022/04/02 01:32:21;;;;;;;;;;;1.30;98.60;;;;;;5104918;28;19916;-64
2022/04/02 01:34:47;;;;;;;;;;;1.30;98.70;;;;;;5105763;28;20048;-64
2022/04/02 01:37:19;;;;;;;;;;;1.30;98.60;;;;;;5105739;28;20213;-65
2022/04/02 01:39:44;;;;;;;;;;;1.40;98.60;;;;;;5105775;28;20114;-64
2022/04/02 01:42:10;;;;;;;;;;;1.40;98.50;;;;;;5105411;28;19912;-64
2022/04/02 01:44:36;;;;;;;;;;;1.40;98.20;;;;;;5105381;28;19915;-64
2022/04/02 01:47:02;;;;;;;;;;;1.30;98.40;;;;;;5105458;28;20365;-64
2022/04/02 01:49:28;;;;;;;;;;;1.30;98.40;;;;;;5105462;28;19908;-63
2022/04/02 01:51:54;;;;;;;;;;;1.30;98.50;;;;;;5104867;28;20214;-64
2022/04/02 01:54:22;;;;;;;;;;;1.30;98.40;;;;;;5105080;28;19944;-63
2022/04/02 01:56:48;;;;;;;;;;;1.30;98.50;;;;;;5105414;28;19954;-64
2022/04/02 01:59:13;;;;;;;;;;;1.30;98.60;;;;;;5105063;28;19912;-63
2022/04/02 02:01:40;;;;;;;;;;;1.30;98.60;;;;;;5104892;28;19954;-63
2022/04/02 02:04:06;;;;;;;;;;;1.20;98.40;;;;;;5105210;28;20226;-64
2022/04/02 02:06:33;;;;;;;;;;;1.20;98.50;;;;;;5105259;28;19950;-64
2022/04/02 02:08:59;;;;;;;;;;;1.30;98.50;;;;;;5105216;28;19914;-63
2022/04/02 02:11:25;;;;;;;;;;;1.20;98.60;;;;;;5104804;28;19907;-63
2022/04/02 02:13:51;;;;;;;;;;;1.30;98.70;;;;;;5104771;28;19908;-64
2022/04/02 02:16:18;;;;;;;;;;;1.30;98.70;;;;;;5104977;28;19916;-63
2022/04/02 02:18:44;;;;;;;;;;;1.30;98.60;;;;;;5104755;28;19912;-63
2022/04/02 02:21:10;;;;;;;;;;;1.20;98.70;;;;;;5104698;28;19908;-63
2022/04/02 02:23:35;;;;;;;;;;;1.20;98.60;;;;;;5104766;28;19912;-63
2022/04/02 02:26:01;;;;;;;;;;;1.30;98.30;;;;;;5105113;28;19979;-64
2022/04/02 02:28:27;;;;;;;;;;;1.30;98.40;;;;;;5105057;28;19927;-63
2022/04/02 02:30:53;;;;;;;;;;;1.30;98.20;;;;;;5104370;28;20122;-63
2022/04/02 02:36:03;;;;;;;;;;;1.30;98.30;;;;;;5104688;28;19923;-63
2022/04/02 02:38:28;;;;;;;;;;;1.30;98.30;;;;;;5104516;28;20165;-63
2022/04/02 02:40:54;;;;;;;;;;;1.30;98.40;;;;;;5104252;28;19908;-64
2022/04/02 02:43:20;;;;;;;;;;;1.30;98.50;;;;;;5102934;28;19912;-63
2022/04/02 02:45:45;;;;;;;;;;;1.30;98.00;;;;;;5097390;28;19908;-64
2022/04/02 02:48:11;;;;;;;;;;;1.20;98.00;;;;;;5103953;28;19934;-63
2022/04/02 02:50:37;;;;;;;;;;;1.20;98.00;;;;;;5103900;28;19916;-63
2022/04/02 02:53:03;;;;;;;;;;;1.30;98.10;;;;;;5103370;28;19993;-64
2022/04/02 02:55:28;;;;;;;;;;;1.20;98.20;;;;;;5104023;28;19943;-63
2022/04/02 02:57:54;;;;;;;;;;;1.20;98.30;;;;;;5103695;28;20084;-64
2022/04/02 03:00:20;;;;;;;;;;;1.20;98.30;;;;;;5103819;28;19983;-63
2022/04/02 03:02:46;;;;;;;;;;;1.20;98.50;;;;;;5103690;28;19958;-63
2022/04/02 03:05:15;;;;;;;;;;;1.10;98.50;;;;;;5103769;28;19923;-63
2022/04/02 03:07:48;;;;;;;;;;;1.10;98.70;;;;;;5103839;28;19912;-63
2022/04/02 03:10:25;;;;;;;;;;;1.10;98.90;;;;;;5086402;28;19931;-64
2022/04/02 03:12:51;;;;;;;;;;;1.10;99.00;;;;;;5103224;28;19908;-64
2022/04/02 03:15:18;;;;;;;;;;;1.10;99.10;;;;;;5103877;28;20107;-63
2022/04/02 03:17:44;;;;;;;;;;;1.10;99.10;;;;;;5103767;28;19908;-63
2022/04/02 03:20:13;;;;;;;;;;;1.10;99.10;;;;;;5093259;28;19992;-63
2022/04/02 03:22:40;;;;;;;;;;;1.10;99.20;;;;;;5103244;28;19912;-63
2022/04/02 03:25:11;;;;;;;;;;;1.10;99.10;;;;;;5102820;28;19908;-64
2022/04/02 03:27:38;;;;;;;;;;;1.10;99.00;;;;;;5085544;28;19916;-64
2022/04/02 03:30:04;;;;;;;;;;;1.10;99.10;;;;;;5103480;28;20207;-64
2022/04/02 03:32:30;;;;;;;;;;;1.10;99.10;;;;;;5103123;28;19914;-64
2022/04/02 03:34:56;;;;;;;;;;;1.10;99.20;;;;;;5103459;28;20255;-64
2022/04/02 03:37:21;;;;;;;;;;;1.00;99.40;;;;;;5103278;28;20306;-63
2022/04/02 03:39:47;;;;;;;;;;;1.00;99.20;;;;;;5103228;28;19916;-64
2022/04/02 03:42:13;;;;;;;;;;;1.00;99.30;;;;;;5102803;28;19920;-64
2022/04/02 03:44:38;;;;;;;;;;;1.00;99.20;;;;;;5103208;28;19908;-64
2022/04/02 03:47:10;;;;;;;;;;;1.00;99.20;;;;;;5103026;28;19916;-64
2022/04/02 03:49:40;;;;;;;;;;;1.00;99.20;;;;;;5103168;28;19954;-64
2022/04/02 03:52:06;;;;;;;;;;;0.90;99.30;;;;;;5102845;28;19908;-64
2022/04/02 03:54:32;;;;;;;;;;;0.90;99.20;;;;;;5102587;28;19951;-64
2022/04/02 03:56:58;;;;;;;;;;;0.90;99.30;;;;;;5103110;28;19915;-63
2022/04/02 03:59:24;;;;;;;;;;;0.90;99.30;;;;;;5102818;28;20249;-63
2022/04/02 04:01:50;;;;;;;;;;;0.90;99.30;;;;;;5102629;28;19912;-64
2022/04/02 04:04:15;;;;;;;;;;;0.90;99.20;;;;;;5098693;28;19908;-64
2022/04/02 04:06:41;;;;;;;;;;;0.90;99.30;;;;;;5102887;28;19908;-63
2022/04/02 04:09:07;;;;;;;;;;;0.90;99.30;;;;;;5102787;28;20207;-64
2022/04/02 04:11:33;;;;;;;;;;;0.90;99.30;;;;;;5102577;28;19986;-63
2022/04/02 04:13:59;;;;;;;;;;;0.90;99.20;;;;;;5102742;28;19908;-64
2022/04/02 04:16:25;;;;;;;;;;;0.90;99.20;;;;;;5102727;28;19935;-64
2022/04/02 04:18:50;;;;;;;;;;;0.90;99.20;;;;;;5102280;28;20229;-63
2022/04/02 04:21:16;;;;;;;;;;;0.90;99.20;;;;;;5101994;28;19908;-64
2022/04/02 04:23:42;;;;;;;;;;;0.90;99.20;;;;;;5105356;28;19931;-64
2022/04/02 04:26:08;;;;;;;;;;;0.80;99.20;;;;;;5122920;28;19908;-64
2022/04/02 04:28:34;;;;;;;;;;;0.80;99.30;;;;;;5122727;28;19944;-64
2022/04/02 04:31:00;;;;;;;;;;;0.80;99.20;;;;;;5122742;28;20208;-63
2022/04/02 04:33:26;;;;;;;;;;;0.80;98.80;;;;;;5122939;28;19915;-63
2022/04/02 04:35:51;;;;;;;;;;;0.80;98.80;;;;;;5122401;28;19914;-63
2022/04/02 04:38:17;;;;;;;;;;;0.80;99.00;;;;;;5122886;28;19938;-62
2022/04/02 04:40:42;;;;;;;;;;;0.90;99.10;;;;;;5122669;28;19927;-63
2022/04/02 04:43:08;;;;;;;;;;;0.80;99.20;;;;;;5122694;28;19983;-63
2022/04/02 04:45:34;;;;;;;;;;;0.80;99.10;;;;;;5122900;28;19923;-63
2022/04/02 04:47:59;;;;;;;;;;;0.80;98.80;;;;;;5122569;28;19919;-63
2022/04/02 04:50:26;;;;;;;;;;;0.80;98.80;;;;;;5109628;28;20005;-63
2022/04/02 04:52:52;;;;;;;;;;;0.80;99.10;;;;;;5102206;28;19982;-63
2022/04/02 04:55:18;;;;;;;;;;;0.70;98.90;;;;;;5102316;28;19908;-65
2022/04/02 04:57:44;;;;;;;;;;;0.80;98.90;;;;;;5102368;28;20107;-63
2022/04/02 05:00:10;;;;;;;;;;;0.70;99.00;;;;;;5102189;28;20172;-63
2022/04/02 05:02:36;;;;;;;;;;;0.70;99.00;;;;;;5101880;28;19919;-63
2022/04/02 05:05:02;;;;;;;;;;;0.70;98.90;;;;;;5102228;28;19917;-63
2022/04/02 05:07:28;;;;;;;;;;;0.70;98.90;;;;;;5105952;28;20123;-63
2022/04/02 05:09:54;;;;;;;;;;;0.70;98.90;;;;;;5071320;28;19944;-63
2022/04/02 05:12:20;;;;;;;;;;;0.60;99.00;;;;;;5105842;28;20201;-63
2022/04/02 05:14:46;;;;;;;;;;;0.70;99.10;;;;;;5087812;28;19912;-63
2022/04/02 05:17:11;;;;;;;;;;;0.70;98.90;;;;;;5105710;28;20116;-63
2022/04/02 05:19:37;;;;;;;;;;;0.70;98.90;;;;;;5105359;28;19920;-63
2022/04/02 05:22:03;;;;;;;;;;;0.70;99.00;;;;;;5104576;28;19916;-63
2022/04/02 05:24:29;;;;;;;;;;;0.70;99.00;;;;;;5103660;28;19912;-63
2022/04/02 05:26:55;;;;;;;;;;;0.70;98.80;;;;;;5104792;28;20146;-62
2022/04/02 05:29:21;;;;;;;;;;;0.70;98.90;;;;;;5104555;28;19920;-62
2022/04/02 05:31:47;;;;;;;;;;;0.70;98.80;;;;;;5104398;28;20131;-62
2022/04/02 05:34:13;;;;;;;;;;;0.70;98.60;;;;;;5105255;28;19916;-62
2022/04/02 05:36:41;;;;;;;;;;;0.70;98.70;;;;;;5105605;28;20038;-63
2022/04/02 05:39:07;;;;;;;;;;;0.70;98.60;;;;;;5105417;28;19914;-62
2022/04/02 05:41:32;;;;;;;;;;;0.70;98.70;;;;;;5105310;28;19916;-62
2022/04/02 05:43:58;;;;;;;;;;;0.70;98.50;;;;;;5105307;28;20253;-63
2022/04/02 05:46:24;;;;;;;;;;;0.70;98.60;;;;;;5105418;28;20111;-62
2022/04/02 05:48:49;;;;;;;;;;;0.80;98.50;;;;;;5105233;28;19960;-63
2022/04/02 05:51:15;;;;;;;;;;;0.80;98.30;;;;;;5104972;28;20141;-62
2022/04/02 05:53:41;;;;;;;;;;;0.80;98.30;;;;;;5105505;28;19911;-63
2022/04/02 05:56:07;;;;;;;;;;;0.80;98.00;;;;;;5105464;28;19985;-63
2022/04/02 05:58:32;;;;;;;;;;;0.80;98.00;;;;;;5104916;28;19928;-64
2022/04/02 06:00:58;;;;;;;;;;;0.80;98.10;;;;;;5104930;28;19914;-63
2022/04/02 06:03:24;;;;;;;;;;;0.80;98.00;;;;;;5086940;28;19997;-63
2022/04/02 06:05:50;;;;;;;;;;;0.80;97.80;;;;;;5104973;28;19908;-63
2022/04/02 06:08:16;;;;;;;;;;;0.80;97.70;;;;;;5104909;28;19939;-63
2022/04/02 06:10:44;;;;;;;;;;;0.90;97.90;;;;;;5104707;28;19948;-63
2022/04/02 06:13:10;;;;;;;;;;;0.90;97.70;;;;;;5104633;28;20013;-63
2022/04/02 06:15:36;;;;;;;;;;;0.90;97.70;;;;;;5104927;28;19912;-63
2022/04/02 06:18:01;;;;;;;;;;;0.90;97.70;;;;;;5104559;28;19908;-63
2022/04/02 06:20:27;;;;;;;;;;;0.90;97.60;;;;;;5104643;28;19916;-62
2022/04/02 06:22:53;;;;;;;;;;;0.90;97.70;;;;;;5104478;28;19934;-63
2022/04/02 06:25:19;;;;;;;;;;;0.90;97.40;;;;;;5104638;28;20107;-66
2022/04/02 06:27:45;;;;;;;;;;;1.00;97.30;;;;;;5104661;28;19971;-63
2022/04/02 06:30:12;;;;;;;;;;;1.00;97.40;;;;;;5104296;28;19915;-63
2022/04/02 06:32:38;;;;;;;;;;;1.10;97.50;;;;;;5104282;28;19916;-63
2022/04/02 06:35:04;;;;;;;;;;;1.00;97.00;;;;;;5104717;28;19915;-63
2022/04/02 06:37:38;;;;;;;;;;;1.10;97.20;;;;;;5104503;28;20203;-63
2022/04/02 06:40:04;;;;;;;;;;;1.10;97.00;;;;;;5104455;28;20137;-64
2022/04/02 06:42:30;;;;;;;;;;;1.10;96.30;;;;;;5103996;28;20356;-64
2022/04/02 06:44:56;;;;;;;;;;;1.10;96.80;;;;;;5104059;28;19908;-63
2022/04/02 06:47:29;;;;;;;;;;;1.10;97.00;;;;;;5104076;28;20185;-63
2022/04/02 06:49:54;;;;;;;;;;;1.10;96.80;;;;;;5104189;28;20230;-63
2022/04/02 06:52:20;;;;;;;;;;;1.10;97.10;;;;;;5103957;28;19908;-64
2022/04/02 06:54:46;;;;;;;;;;;1.20;96.30;;;;;;5103915;28;20046;-64
2022/04/02 06:57:19;;;;;;;;;;;1.20;96.70;;;;;;5104150;28;19916;-64
2022/04/02 06:59:45;;;;;;;;;;;1.40;96.50;;;;;;5103751;28;19915;-63
2022/04/02 07:02:10;;;;;;;;;;;1.40;96.40;;;;;;5103507;28;20115;-63
2022/04/02 07:04:36;;;;;;;;;;;1.40;96.50;;;;;;5103956;28;19908;-63
2022/04/02 07:07:02;;;;;;;;;;;1.50;96.30;;;;;;5103744;28;19948;-63
2022/04/02 07:09:28;;;;;;;;;;;1.50;96.00;;;;;;5103726;28;19934;-63
2022/04/02 07:11:55;;;;;;;;;;;1.50;96.00;;;;;;5103502;28;19908;-62
2022/04/02 07:14:21;;;;;;;;;;;1.40;95.60;;;;;;5103520;28;19912;-64
2022/04/02 07:16:47;;;;;;;;;;;1.50;95.80;;;;;;5103802;28;20405;-64
2022/04/02 07:19:13;;;;;;;;;;;1.60;95.40;;;;;;5103953;28;19916;-64
2022/04/02 07:21:39;;;;;;;;;;;1.60;94.60;;;;;;5103442;28;19912;-64
2022/04/02 07:24:05;;;;;;;;;;;1.70;94.20;;;;;;5085768;28;20145;-64
2022/04/02 07:26:32;;;;;;;;;;;1.60;95.10;;;;;;5085581;28;19998;-63
2022/04/02 07:28:58;;;;;;;;;;;1.60;94.90;;;;;;5102485;28;20211;-63
2022/04/02 07:31:24;;;;;;;;;;;1.60;94.80;;;;;;5103265;28;19914;-64
2022/04/02 07:33:49;;;;;;;;;;;1.60;94.10;;;;;;5103349;28;19939;-63
2022/04/02 07:36:40;;;;;;;;;;;1.40;94.50;;;;;;5103289;28;19908;-64
2022/04/02 07:39:21;;;;;;;;;;;1.50;94.60;;;;;;5103266;28;19933;-64
2022/04/02 07:42:22;;;;;;;;;;;1.70;94.90;;;;;;5085436;28;19908;-64
2022/04/02 07:45:08;;;;;;;;;;;1.70;94.50;;;;;;5092234;28;19923;-63
2022/04/02 07:47:37;;;;;;;;;;;1.60;94.10;;;;;;5068318;28;19942;-64
2022/04/02 07:50:04;;;;;;;;;;;1.70;94.30;;;;;;5103061;28;19951;-64
2022/04/02 07:52:30;;;;;;;;;;;1.70;94.00;;;;;;5102752;28;19908;-63
2022/04/02 07:54:57;;;;;;;;;;;1.80;94.10;;;;;;5085286;28;20119;-64
2022/04/02 07:57:24;;;;;;;;;;;1.80;94.10;;;;;;5101489;28;19924;-63
2022/04/02 07:59:52;;;;;;;;;;;1.70;93.80;;;;;;5102305;28;19912;-63
2022/04/02 08:02:36;;;;;;;;;;;1.70;94.10;;;;;;5087215;28;20146;-64
2022/04/02 08:05:02;;;;;;;;;;;1.90;94.20;;;;;;5082632;28;19951;-64
2022/04/02 08:07:32;;;;;;;;;;;2.00;94.10;;;;;;5102784;28;20141;-64
2022/04/02 08:09:58;;;;;;;;;;;2.10;93.80;;;;;;5101893;28;19949;-65
2022/04/02 08:12:26;;;;;;;;;;;2.10;93.30;;;;;;5100691;28;19989;-64
2022/04/02 08:14:52;;;;;;;;;;;2.10;93.50;;;;;;5102305;28;19954;-63
2022/04/02 08:17:19;;;;;;;;;;;2.10;93.60;;;;;;5102566;28;20036;-63
2022/04/02 08:19:45;;;;;;;;;;;2.10;93.30;;;;;;5102542;28;19908;-64
2022/04/02 08:22:11;;;;;;;;;;;2.30;92.70;;;;;;5102140;28;19912;-63
2022/04/02 08:24:37;;;;;;;;;;;2.30;93.40;;;;;;5102552;28;19916;-64
2022/04/02 08:27:04;;;;;;;;;;;2.40;92.80;;;;;;5104840;28;19977;-64
2022/04/02 08:29:35;;;;;;;;;;;2.30;93.20;;;;;;5092522;28;19908;-63
2022/04/02 08:32:01;;;;;;;;;;;2.50;93.20;;;;;;5102483;28;19908;-63
2022/04/02 08:34:35;;;;;;;;;;;2.50;93.40;;;;;;5102866;28;20143;-64
2022/04/02 08:37:16;;;;;;;;;;;2.40;93.00;;;;;;5055194;28;20030;-65
2022/04/02 08:40:08;;;;;;;;;;;2.60;92.90;;;;;;5071698;28;19916;-64
2022/04/02 08:42:58;;;;;;;;;;;2.60;92.60;;;;;;5086064;28;19919;-64
2022/04/02 08:45:30;;;;;;;;;;;2.60;92.40;;;;;;5106348;28;19915;-64
2022/04/02 08:48:21;;;;;;;;;;;2.60;92.30;;;;;;5106212;28;19953;-66
2022/04/02 08:50:54;;;;;;;;;;;2.90;91.50;;;;;;5106118;28;19908;-63
2022/04/02 08:53:33;;;;;;;;;;;3.00;91.80;;;;;;5106636;28;19955;-63
2022/04/02 08:56:01;;;;;;;;;;;2.90;92.40;;;;;;5087376;28;20207;-64
2022/04/02 08:58:51;;;;;;;;;;;3.00;91.40;;;;;;5101269;28;19916;-69
2022/04/02 09:01:41;;;;;;;;;;;3.00;91.80;;;;;;5083528;28;19963;-67
2022/04/02 09:04:41;;;;;;;;;;;3.00;91.90;;;;;;5059245;28;19927;-67
2022/04/02 09:07:24;;;;;;;;;;;3.00;91.40;;;;;;5106113;28;19908;-65
2022/04/02 09:10:26;;;;;;;;;;;3.10;91.10;;;;;;5087993;28;20242;-64
2022/04/02 09:13:20;;;;;;;;;;;3.30;90.70;;;;;;5105833;28;19908;-65
2022/04/02 09:16:05;;;;;;;;;;;3.40;91.00;;;;;;5087670;28;19936;-65
2022/04/02 09:18:50;;;;;;;;;;;3.60;90.70;;;;;;5105956;28;19951;-65
2022/04/02 09:21:33;;;;;;;;;;;3.80;89.60;;;;;;5105350;28;19997;-64
2022/04/02 09:24:04;;;;;;;;;;;3.60;89.60;;;;;;5105884;28;19943;-64
2022/04/02 09:26:48;;;;;;;;;;;3.70;88.30;;;;;;5087543;28;20115;-64
2022/04/02 09:29:20;;;;;;;;;;;3.80;85.90;;;;;;5103523;28;19908;-64
2022/04/02 09:32:08;;;;;;;;;;;3.90;88.00;;;;;;5105115;28;19912;-65
2022/04/02 09:34:40;;;;;;;;;;;3.80;87.70;;;;;;5104133;28;20249;-66
2022/04/02 09:37:15;;;;;;;;;;;3.70;88.70;;;;;;5103378;28;19908;-65
2022/04/02 09:40:05;;;;;;;;;;;4.00;89.30;;;;;;5095575;28;19912;-65
2022/04/02 09:42:50;;;;;;;;;;;4.10;86.90;;;;;;5105153;28;19912;-65
2022/04/02 09:45:22;;;;;;;;;;;3.80;87.10;;;;;;5075630;28;20111;-65
2022/04/02 09:47:50;;;;;;;;;;;4.00;84.40;;;;;;5099746;28;20003;-65
2022/04/02 09:50:20;;;;;;;;;;;3.90;86.30;;;;;;5102246;28;20195;-65
2022/04/02 09:52:46;;;;;;;;;;;3.70;84.40;;;;;;5094682;28;20111;-65
2022/04/02 09:55:15;;;;;;;;;;;3.60;86.60;;;;;;5105397;28;19943;-65
2022/04/02 09:57:44;;;;;;;;;;;3.70;86.70;;;;;;5104953;28;19908;-65
2022/04/02 10:00:10;;;;;;;;;;;3.90;87.30;;;;;;5104031;28;19912;-65
2022/04/02 10:03:06;;;;;;;;;;;4.00;88.80;;;;;;5104412;28;19912;-65
2022/04/02 10:05:51;;;;;;;;;;;4.20;85.50;;;;;;5089502;28;19951;-65
2022/04/02 10:08:25;;;;;;;;;;;4.30;86.00;;;;;;5104936;28;19934;-66
2022/04/02 10:10:51;;;;;;;;;;;4.50;84.80;;;;;;5104587;28;19970;-65
2022/04/02 10:13:18;;;;;;;;;;;4.70;85.90;;;;;;5104720;28;20219;-66
2022/04/02 10:15:43;;;;;;;;;;;4.80;84.80;;;;;;5086706;28;19928;-66
2022/04/02 10:18:10;;;;;;;;;;;4.80;82.90;;;;;;5069991;28;20155;-66
2022/04/02 10:20:36;;;;;;;;;;;4.90;83.80;;;;;;5113014;28;19954;-66
2022/04/02 10:23:13;;;;;;;;;;;5.00;80.50;;;;;;5125203;28;19986;-65
2022/04/02 10:25:58;;;;;;;;;;;5.10;78.70;;;;;;5106942;28;19979;-65
2022/04/02 10:28:28;;;;;;;;;;;4.80;79.30;;;;;;5122100;28;19979;-66
2022/04/02 10:30:55;;;;;;;;;;;4.80;77.00;;;;;;5102764;28;20154;-65
2022/04/02 10:33:26;;;;;;;;;;;4.70;80.20;;;;;;5070132;28;19930;-65
2022/04/02 10:35:53;;;;;;;;;;;4.50;79.70;;;;;;5071385;28;20225;-66
2022/04/02 10:38:24;;;;;;;;;;;4.60;83.10;;;;;;5104470;28;19912;-66
2022/04/02 10:40:50;;;;;;;;;;;4.50;83.70;;;;;;5086044;28;19908;-66
2022/04/02 10:43:27;;;;;;;;;;;4.80;78.70;;;;;;5104437;28;19912;-65
2022/04/02 10:45:53;;;;;;;;;;;4.50;77.00;;;;;;5103958;28;19943;-65
2022/04/02 10:48:49;;;;;;;;;;;4.20;79.70;;;;;;5104310;28;19919;-66
2022/04/02 10:51:14;;;;;;;;;;;4.20;79.30;;;;;;5078676;28;20200;-66
2022/04/02 10:53:44;;;;;;;;;;;4.40;81.80;;;;;;5049545;28;19913;-66
2022/04/02 10:56:16;;;;;;;;;;;4.50;82.10;;;;;;5083821;28;19908;-66
2022/04/02 10:58:41;;;;;;;;;;;4.80;81.30;;;;;;5068300;28;19915;-68
2022/04/02 11:01:07;;;;;;;;;;;4.90;82.20;;;;;;5066681;28;19920;-68
2022/04/02 11:03:39;;;;;;;;;;;5.10;77.30;;;;;;5102222;28;19912;-66
2022/04/02 11:06:05;;;;;;;;;;;5.20;81.90;;;;;;5103608;28;20207;-69
2022/04/02 11:08:31;;;;;;;;;;;5.20;83.10;;;;;;5093168;28;19924;-67
2022/04/02 11:11:16;;;;;;;;;;;5.40;79.60;;;;;;5103560;28;20233;-68
2022/04/02 11:13:43;;;;;;;;;;;5.30;79.20;;;;;;5103548;28;19914;-67
2022/04/02 11:16:16;;;;;;;;;;;5.00;81.50;;;;;;5088410;28;19919;-71
2022/04/02 11:19:53;;;;;;;;;;;4.90;80.70;;;;;;5095453;28;19979;-70
2022/04/02 11:21:28;;;;;;;;;;;5.00;80.80;;;;;;5087527;28;19943;-70
2022/04/02 11:24:00;;;;;;;;;;;5.30;75.80;;;;;;5085614;28;20214;-69
2022/04/02 11:26:27;;;;;;;;;;;5.00;78.00;;;;;;5085177;28;19908;-69
2022/04/02 11:28:53;;;;;;;;;;;4.90;75.70;;;;;;5101542;28;19920;-67
2022/04/02 11:31:26;;;;;;;;;;;4.80;78.20;;;;;;5072734;28;20258;-67
2022/04/02 11:33:52;;;;;;;;;;;4.70;80.00;;;;;;5082930;28;19979;-66
2022/04/02 11:36:41;;;;;;;;;;;4.90;79.90;;;;;;5102569;28;19957;-66
2022/04/02 11:39:10;;;;;;;;;;;5.30;79.00;;;;;;5103632;28;19951;-66
2022/04/02 11:41:41;;;;;;;;;;;5.30;80.10;;;;;;5085136;28;20195;-67
2022/04/02 11:44:08;;;;;;;;;;;5.20;80.00;;;;;;5084982;28;20262;-67
2022/04/02 11:46:55;;;;;;;;;;;5.30;79.00;;;;;;5103000;28;19915;-67
2022/04/02 11:49:36;;;;;;;;;;;5.50;78.10;;;;;;5085369;28;20177;-67
2022/04/02 11:52:14;;;;;;;;;;;5.30;78.40;;;;;;5102846;28;19915;-67
2022/04/02 11:54:41;;;;;;;;;;;5.20;79.10;;;;;;5084733;28;19916;-67
2022/04/02 11:57:08;;;;;;;;;;;5.20;78.30;;;;;;5103166;28;19915;-67
2022/04/02 11:59:35;;;;;;;;;;;5.10;80.10;;;;;;5101034;28;19908;-67
2022/04/02 12:02:00;;;;;;;;;;;5.10;80.30;;;;;;5102385;28;19916;-67
2022/04/02 12:04:26;;;;;;;;;;;5.40;80.20;;;;;;5102921;28;19915;-64
2022/04/02 12:06:53;;;;;;;;;;;5.60;77.40;;;;;;5084502;28;19916;-67
2022/04/02 12:09:20;;;;;;;;;;;5.50;78.70;;;;;;5102628;28;19909;-67
2022/04/02 12:12:06;;;;;;;;;;;5.60;76.00;;;;;;5102382;28;19954;-66
2022/04/02 12:14:32;;;;;;;;;;;5.80;76.50;;;;;;5102284;28;20305;-66
2022/04/02 12:17:01;;;;;;;;;;;5.80;77.00;;;;;;5102189;28;19920;-66
2022/04/02 12:19:56;;;;;;;;;;;5.80;75.80;;;;;;5084373;28;19916;-65
2022/04/02 12:22:25;;;;;;;;;;;5.90;76.30;;;;;;5088489;28;20298;-65
2022/04/02 12:24:53;;;;;;;;;;;5.80;74.60;;;;;;5101592;28;19916;-66
2022/04/02 12:27:20;;;;;;;;;;;5.90;75.10;;;;;;5099987;28;19912;-66
2022/04/02 12:29:50;;;;;;;;;;;6.20;73.40;;;;;;5100110;28;19909;-65
2022/04/02 12:32:31;;;;;;;;;;;6.40;71.80;;;;;;5104698;28;20137;-66
2022/04/02 12:34:57;;;;;;;;;;;6.50;69.80;;;;;;5115861;28;20235;-65
2022/04/02 12:37:25;;;;;;;;;;;6.50;71.00;;;;;;5098372;28;20159;-66
2022/04/02 12:39:51;;;;;;;;;;;6.50;71.90;;;;;;5092731;28;19912;-66
2022/04/02 12:42:35;;;;;;;;;;;6.80;66.50;;;;;;5101917;28;19916;-65
2022/04/02 12:45:08;;;;;;;;;;;6.80;66.40;;;;;;5101739;28;19953;-65
2022/04/02 12:47:34;;;;;;;;;;;6.40;71.20;;;;;;5101913;28;19981;-66
2022/04/02 12:50:10;;;;;;;;;;;6.60;68.50;;;;;;5114829;28;19931;-66
2022/04/02 12:52:46;;;;;;;;;;;6.60;68.40;;;;;;5117872;28;19953;-65
2022/04/02 12:55:22;;;;;;;;;;;6.50;68.50;;;;;;5122429;28;19916;-66
2022/04/02 12:58:10;;;;;;;;;;;6.60;70.30;;;;;;5097166;28;19912;-66
2022/04/02 13:00:43;;;;;;;;;;;6.60;70.20;;;;;;5094856;28;20089;-66
2022/04/02 13:03:09;;;;;;;;;;;7.00;68.70;;;;;;5097523;28;19919;-66
2022/04/02 13:05:48;;;;;;;;;;;7.00;65.60;;;;;;5102064;28;19940;-65
2022/04/02 13:08:13;;;;;;;;;;;6.60;65.60;;;;;;5101852;28;19912;-65
2022/04/02 13:10:48;;;;;;;;;;;6.60;67.70;;;;;;5101334;28;19981;-65
2022/04/02 13:13:14;;;;;;;;;;;6.70;68.70;;;;;;5102277;28;19908;-66
2022/04/02 13:16:00;;;;;;;;;;;6.80;66.80;;;;;;5101773;28;20145;-66
2022/04/02 13:21:10;;;;;;;;;;;6.60;67.50;;;;;;5101311;28;20343;-66
2022/04/02 13:24:06;;;;;;;;;;;6.60;67.70;;;;;;5082330;28;19912;-72
2022/04/02 13:26:32;;;;;;;;;;;6.40;68.10;;;;;;5086968;28;19908;-66
2022/04/02 13:29:20;;;;;;;;;;;6.70;67.60;;;;;;5095965;28;19923;-66
2022/04/02 13:32:13;;;;;;;;;;;6.70;66.80;;;;;;5088926;28;20376;-66
2022/04/02 13:34:44;;;;;;;;;;;6.70;68.10;;;;;;5088806;28;20137;-66
2022/04/02 13:37:24;;;;;;;;;;;6.90;63.50;;;;;;5086526;28;19953;-66
2022/04/02 13:39:53;;;;;;;;;;;6.60;62.00;;;;;;5103538;28;19908;-66
2022/04/02 13:42:29;;;;;;;;;;;6.40;63.20;;;;;;5105181;28;19912;-67
2022/04/02 13:44:58;;;;;;;;;;;6.20;68.50;;;;;;5105128;28;20204;-67
2022/04/02 13:47:24;;;;;;;;;;;6.40;68.30;;;;;;5104029;28;19955;-67
2022/04/02 13:49:57;;;;;;;;;;;6.30;66.90;;;;;;5105348;28;19987;-67
2022/04/02 13:52:24;;;;;;;;;;;6.20;68.50;;;;;;5083696;28;20189;-67
2022/04/02 13:55:11;;;;;;;;;;;6.60;66.50;;;;;;5084829;28;19915;-67
2022/04/02 13:57:37;;;;;;;;;;;6.50;66.20;;;;;;5085062;28;19912;-67
2022/04/02 14:00:07;;;;;;;;;;;6.50;67.40;;;;;;5090507;28;19915;-66
2022/04/02 14:02:33;;;;;;;;;;;6.50;65.40;;;;;;5104477;28;20162;-66
2022/04/02 14:05:20;;;;;;;;;;;6.30;66.50;;;;;;5104930;28;19961;-66
2022/04/02 14:08:04;;;;;;;;;;;6.20;67.90;;;;;;5104941;28;20226;-67
2022/04/02 14:10:34;;;;;;;;;;;6.20;69.90;;;;;;5086468;28;19935;-67
2022/04/02 14:13:00;;;;;;;;;;;6.10;67.90;;;;;;5104683;28;19908;-66
2022/04/02 14:15:26;;;;;;;;;;;6.20;68.80;;;;;;5104728;28;19983;-66
2022/04/02 14:17:53;;;;;;;;;;;6.10;65.60;;;;;;5070058;28;20450;-66
2022/04/02 14:20:19;;;;;;;;;;;5.60;66.50;;;;;;5104691;28;20171;-66
2022/04/02 14:22:57;;;;;;;;;;;5.50;68.30;;;;;;5104440;28;19912;-68
2022/04/02 14:25:46;;;;;;;;;;;5.50;70.40;;;;;;5104673;28;19954;-67
2022/04/02 14:28:23;;;;;;;;;;;5.40;71.30;;;;;;5071506;28;19919;-65
2022/04/02 14:30:52;;;;;;;;;;;5.40;70.90;;;;;;5069519;28;19908;-65
2022/04/02 14:33:27;;;;;;;;;;;5.30;71.60;;;;;;5104469;28;19919;-65
2022/04/02 14:36:17;;;;;;;;;;;5.30;75.70;;;;;;5086654;28;19908;-66
2022/04/02 14:39:23;;;;;;;;;;;5.20;72.50;;;;;;5101800;28;19996;-67
2022/04/02 14:42:02;;;;;;;;;;;5.10;77.20;;;;;;5082206;28;19930;-67
2022/04/02 14:45:06;;;;;;;;;;;5.00;77.20;;;;;;5099619;28;19935;-66
2022/04/02 14:47:58;;;;;;;;;;;5.00;77.20;;;;;;5098866;28;19959;-66
2022/04/02 14:51:01;;;;;;;;;;;5.00;76.60;;;;;;5094049;28;19908;-66
2022/04/02 14:53:46;;;;;;;;;;;5.20;76.00;;;;;;5119401;28;19915;-66
2022/04/02 14:56:39;;;;;;;;;;;4.80;73.40;;;;;;5106584;28;20088;-66